sensor_id;sensor_type;location;lat;lon;timestamp;pressure;altitude;pressure_sealevel;temperature;humidity
55466;BME280;41329;41.594;23.810;2023-01-29T00:01:40;95197.47;;;4.47;65.73
55466;BME280;41329;41.594;23.810;2023-01-29T00:04:05;95179.41;;;4.34;66.07
55466;BME280;41329;41.594;23.810;2023-01-29T00:06:31;95200.66;;;4.49;66.11
55466;BME280;41329;41.594;23.810;2023-01-29T00:08:57;95196.00;;;4.50;66.32
55466;BME280;41329;41.594;23.810;2023-01-29T00:11:22;95198.41;;;4.51;66.72
55466;BME280;41329;41.594;23.810;2023-01-29T00:13:51;95187.53;;;4.43;66.57
55466;BME280;41329;41.594;23.810;2023-01-29T00:16:17;95149.22;;;4.22;66.68
55466;BME280;41329;41.594;23.810;2023-01-29T00:18:42;95194.84;;;4.51;67.09
55466;BME280;41329;41.594;23.810;2023-01-29T00:21:16;95195.28;;;4.41;67.22
55466;BME280;41329;41.594;23.810;2023-01-29T00:23:42;95198.63;;;4.46;67.54
55466;BME280;41329;41.594;23.810;2023-01-29T00:26:08;95205.56;;;4.44;67.84
55466;BME280;41329;41.594;23.810;2023-01-29T00:28:34;95208.75;;;4.46;67.78
55466;BME280;41329;41.594;23.810;2023-01-29T00:31:11;95198.03;;;4.41;67.93
55466;BME280;41329;41.594;23.810;2023-01-29T00:33:37;95205.25;;;4.45;67.90
55466;BME280;41329;41.594;23.810;2023-01-29T00:36:07;95190.56;;;4.29;67.81
55466;BME280;41329;41.594;23.810;2023-01-29T00:38:33;95198.91;;;4.33;68.10
55466;BME280;41329;41.594;23.810;2023-01-29T00:41:14;95211.22;;;4.39;67.94
55466;BME280;41329;41.594;23.810;2023-01-29T00:43:59;95206.31;;;4.32;68.11
55466;BME280;41329;41.594;23.810;2023-01-29T00:46:44;95202.91;;;4.35;68.07
55466;BME280;41329;41.594;23.810;2023-01-29T00:49:09;95203.44;;;4.29;68.00
55466;BME280;41329;41.594;23.810;2023-01-29T00:51:36;95200.25;;;4.27;67.76
55466;BME280;41329;41.594;23.810;2023-01-29T00:54:02;95197.50;;;4.27;67.81
55466;BME280;41329;41.594;23.810;2023-01-29T00:56:32;95191.16;;;4.14;67.60
55466;BME280;41329;41.594;23.810;2023-01-29T00:58:58;95200.09;;;4.23;67.59
55466;BME280;41329;41.594;23.810;2023-01-29T01:01:24;95206.72;;;4.22;67.35
55466;BME280;41329;41.594;23.810;2023-01-29T01:04:09;95201.91;;;4.19;67.51
55466;BME280;41329;41.594;23.810;2023-01-29T01:06:41;95212.84;;;4.19;67.51
55466;BME280;41329;41.594;23.810;2023-01-29T01:09:08;95213.53;;;4.16;67.18
55466;BME280;41329;41.594;23.810;2023-01-29T01:11:53;95211.78;;;4.12;67.15
55466;BME280;41329;41.594;23.810;2023-01-29T01:14:19;95207.66;;;4.06;67.13
55466;BME280;41329;41.594;23.810;2023-01-29T01:16:45;95205.78;;;3.98;67.13
55466;BME280;41329;41.594;23.810;2023-01-29T01:19:12;95206.44;;;3.95;67.49
55466;BME280;41329;41.594;23.810;2023-01-29T01:21:38;95201.72;;;3.83;67.72
55466;BME280;41329;41.594;23.810;2023-01-29T01:24:03;95212.91;;;3.90;67.83
55466;BME280;41329;41.594;23.810;2023-01-29T01:26:33;95213.59;;;3.87;67.97
55466;BME280;41329;41.594;23.810;2023-01-29T01:28:59;95214.56;;;3.83;67.99
55466;BME280;41329;41.594;23.810;2023-01-29T01:31:24;95203.41;;;3.67;67.77
55466;BME280;41329;41.594;23.810;2023-01-29T01:33:50;95209.03;;;3.71;68.06
55466;BME280;41329;41.594;23.810;2023-01-29T01:36:16;95205.34;;;3.67;68.05
55466;BME280;41329;41.594;23.810;2023-01-29T01:38:42;95200.88;;;3.62;68.15
55466;BME280;41329;41.594;23.810;2023-01-29T01:41:11;95206.34;;;3.62;68.31
55466;BME280;41329;41.594;23.810;2023-01-29T01:43:59;95213.94;;;3.57;68.59
55466;BME280;41329;41.594;23.810;2023-01-29T01:46:33;95188.00;;;3.34;68.71
55466;BME280;41329;41.594;23.810;2023-01-29T01:51:32;95204.69;;;3.41;69.08
55466;BME280;41329;41.594;23.810;2023-01-29T01:54:12;95217.66;;;3.52;69.08
55466;BME280;41329;41.594;23.810;2023-01-29T01:56:43;95226.66;;;3.53;69.26
55466;BME280;41329;41.594;23.810;2023-01-29T01:59:11;95200.69;;;3.38;69.27
55466;BME280;41329;41.594;23.810;2023-01-29T02:01:38;95226.66;;;3.53;69.21
55466;BME280;41329;41.594;23.810;2023-01-29T02:04:10;95227.00;;;3.51;68.81
55466;BME280;41329;41.594;23.810;2023-01-29T02:06:57;95213.53;;;3.46;69.20
55466;BME280;41329;41.594;23.810;2023-01-29T02:09:47;95201.81;;;3.37;69.13
55466;BME280;41329;41.594;23.810;2023-01-29T02:12:15;95226.06;;;3.47;68.76
55466;BME280;41329;41.594;23.810;2023-01-29T02:14:42;95222.69;;;3.42;68.66
55466;BME280;41329;41.594;23.810;2023-01-29T02:17:13;95227.22;;;3.38;68.59
55466;BME280;41329;41.594;23.810;2023-01-29T02:20:05;95226.63;;;3.32;68.62
55466;BME280;41329;41.594;23.810;2023-01-29T02:36:45;95231.31;;;3.23;69.36
55466;BME280;41329;41.594;23.810;2023-01-29T02:39:14;95218.00;;;3.13;69.22
55466;BME280;41329;41.594;23.810;2023-01-29T02:41:57;95234.72;;;3.20;69.41
55466;BME280;41329;41.594;23.810;2023-01-29T02:47:21;95240.81;;;3.17;69.43
55466;BME280;41329;41.594;23.810;2023-01-29T02:52:34;95238.59;;;3.11;69.62
55466;BME280;41329;41.594;23.810;2023-01-29T02:57:50;95221.09;;;3.03;69.88
55466;BME280;41329;41.594;23.810;2023-01-29T03:00:21;95240.53;;;3.10;69.84
55466;BME280;41329;41.594;23.810;2023-01-29T03:02:53;95243.25;;;3.10;69.83
55466;BME280;41329;41.594;23.810;2023-01-29T03:05:24;95249.53;;;3.02;69.90
55466;BME280;41329;41.594;23.810;2023-01-29T03:07:55;95241.34;;;3.02;70.19
55466;BME280;41329;41.594;23.810;2023-01-29T03:16:38;95237.06;;;2.93;70.33
55466;BME280;41329;41.594;23.810;2023-01-29T03:19:08;95240.44;;;2.98;70.15
55466;BME280;41329;41.594;23.810;2023-01-29T03:21:41;95249.41;;;2.99;70.09
55466;BME280;41329;41.594;23.810;2023-01-29T03:24:37;95252.94;;;2.99;70.06
55466;BME280;41329;41.594;23.810;2023-01-29T03:27:27;95255.00;;;3.02;70.34
55466;BME280;41329;41.594;23.810;2023-01-29T03:30:15;95263.06;;;3.07;70.59
55466;BME280;41329;41.594;23.810;2023-01-29T03:33:03;95260.00;;;3.09;71.03
55466;BME280;41329;41.594;23.810;2023-01-29T03:35:35;95264.78;;;3.12;71.01
55466;BME280;41329;41.594;23.810;2023-01-29T03:38:06;95263.19;;;3.11;71.13
55466;BME280;41329;41.594;23.810;2023-01-29T03:40:44;95255.66;;;3.08;71.21
55466;BME280;41329;41.594;23.810;2023-01-29T03:46:15;95271.06;;;3.12;71.07
55466;BME280;41329;41.594;23.810;2023-01-29T03:49:08;95255.19;;;2.97;71.59
55466;BME280;41329;41.594;23.810;2023-01-29T03:52:01;95273.31;;;3.10;71.51
55466;BME280;41329;41.594;23.810;2023-01-29T03:54:34;95224.69;;;2.87;71.59
55466;BME280;41329;41.594;23.810;2023-01-29T03:59:54;95266.25;;;3.18;71.80
55466;BME280;41329;41.594;23.810;2023-01-29T04:02:27;95262.88;;;3.12;71.72
55466;BME280;41329;41.594;23.810;2023-01-29T04:05:16;95279.41;;;3.24;71.83
55466;BME280;41329;41.594;23.810;2023-01-29T04:07:44;95221.13;;;2.95;71.76
55466;BME280;41329;41.594;23.810;2023-01-29T04:10:20;95263.19;;;3.19;71.60
55466;BME280;41329;41.594;23.810;2023-01-29T04:13:01;95277.63;;;3.28;71.55
55466;BME280;41329;41.594;23.810;2023-01-29T04:15:30;95281.00;;;3.25;71.67
55466;BME280;41329;41.594;23.810;2023-01-29T04:17:59;95282.78;;;3.30;71.56
55466;BME280;41329;41.594;23.810;2023-01-29T04:20:25;95294.50;;;3.30;71.68
55466;BME280;41329;41.594;23.810;2023-01-29T04:22:51;95296.56;;;3.33;71.75
55466;BME280;41329;41.594;23.810;2023-01-29T04:25:29;95288.06;;;3.35;71.71
55466;BME280;41329;41.594;23.810;2023-01-29T04:30:49;95266.69;;;3.28;71.54
55466;BME280;41329;41.594;23.810;2023-01-29T04:33:34;95289.16;;;3.42;71.42
55466;BME280;41329;41.594;23.810;2023-01-29T04:39:17;95284.81;;;3.41;71.04
55466;BME280;41329;41.594;23.810;2023-01-29T04:41:56;95291.56;;;3.44;71.14
55466;BME280;41329;41.594;23.810;2023-01-29T04:44:34;95294.28;;;3.44;71.24
55466;BME280;41329;41.594;23.810;2023-01-29T04:50:17;95303.28;;;3.44;70.96
55466;BME280;41329;41.594;23.810;2023-01-29T04:55:29;95298.81;;;3.40;70.76
55466;BME280;41329;41.594;23.810;2023-01-29T05:00:48;95313.28;;;3.40;70.55
55466;BME280;41329;41.594;23.810;2023-01-29T05:03:15;95307.66;;;3.37;70.37
55466;BME280;41329;41.594;23.810;2023-01-29T05:05:44;95315.53;;;3.38;70.08
55466;BME280;41329;41.594;23.810;2023-01-29T05:08:14;95315.41;;;3.35;70.18
55466;BME280;41329;41.594;23.810;2023-01-29T05:10:41;95318.13;;;3.35;70.20
55466;BME280;41329;41.594;23.810;2023-01-29T05:13:09;95319.59;;;3.32;70.33
55466;BME280;41329;41.594;23.810;2023-01-29T05:15:38;95320.06;;;3.34;70.35
55466;BME280;41329;41.594;23.810;2023-01-29T05:18:05;95319.91;;;3.31;70.45
55466;BME280;41329;41.594;23.810;2023-01-29T05:20:34;95283.78;;;3.08;70.49
55466;BME280;41329;41.594;23.810;2023-01-29T05:23:01;95325.06;;;3.32;70.29
55466;BME280;41329;41.594;23.810;2023-01-29T05:25:29;95316.84;;;3.32;70.41
55466;BME280;41329;41.594;23.810;2023-01-29T05:27:55;95316.84;;;3.32;70.50
55466;BME280;41329;41.594;23.810;2023-01-29T05:30:32;95318.00;;;3.23;70.61
55466;BME280;41329;41.594;23.810;2023-01-29T05:32:58;95320.22;;;3.29;70.48
55466;BME280;41329;41.594;23.810;2023-01-29T05:35:24;95324.09;;;3.28;70.59
55466;BME280;41329;41.594;23.810;2023-01-29T05:37:49;95326.66;;;3.33;70.63
55466;BME280;41329;41.594;23.810;2023-01-29T05:40:15;95326.66;;;3.33;70.70
55466;BME280;41329;41.594;23.810;2023-01-29T05:42:41;95330.66;;;3.36;70.74
55466;BME280;41329;41.594;23.810;2023-01-29T05:45:07;95322.16;;;3.29;70.67
55466;BME280;41329;41.594;23.810;2023-01-29T05:47:33;95327.78;;;3.32;70.65
55466;BME280;41329;41.594;23.810;2023-01-29T05:49:58;95338.88;;;3.36;70.90
55466;BME280;41329;41.594;23.810;2023-01-29T05:52:24;95342.06;;;3.38;70.77
55466;BME280;41329;41.594;23.810;2023-01-29T05:54:49;95340.16;;;3.38;70.72
55466;BME280;41329;41.594;23.810;2023-01-29T05:57:14;95328.56;;;3.33;70.84
55466;BME280;41329;41.594;23.810;2023-01-29T05:59:40;95331.63;;;3.31;71.05
55466;BME280;41329;41.594;23.810;2023-01-29T06:02:05;95345.75;;;3.42;70.96
55466;BME280;41329;41.594;23.810;2023-01-29T06:04:31;95330.03;;;3.30;71.07
55466;BME280;41329;41.594;23.810;2023-01-29T06:06:56;95350.91;;;3.43;70.95
55466;BME280;41329;41.594;23.810;2023-01-29T06:09:22;95328.28;;;3.26;70.84
55466;BME280;41329;41.594;23.810;2023-01-29T06:11:47;95361.53;;;3.45;70.85
55466;BME280;41329;41.594;23.810;2023-01-29T06:14:13;95356.69;;;3.42;71.00
55466;BME280;41329;41.594;23.810;2023-01-29T06:16:38;95366.34;;;3.48;71.26
55466;BME280;41329;41.594;23.810;2023-01-29T06:19:03;95355.59;;;3.43;71.19
55466;BME280;41329;41.594;23.810;2023-01-29T06:21:29;95372.13;;;3.46;70.93
55466;BME280;41329;41.594;23.810;2023-01-29T06:23:55;95372.59;;;3.48;71.12
55466;BME280;41329;41.594;23.810;2023-01-29T06:26:20;95372.59;;;3.48;71.09
55466;BME280;41329;41.594;23.810;2023-01-29T06:28:49;95389.66;;;3.54;71.26
55466;BME280;41329;41.594;23.810;2023-01-29T06:31:15;95380.66;;;3.53;71.50
55466;BME280;41329;41.594;23.810;2023-01-29T06:33:40;95388.19;;;3.56;71.67
55466;BME280;41329;41.594;23.810;2023-01-29T06:36:06;95362.34;;;3.45;71.41
55466;BME280;41329;41.594;23.810;2023-01-29T06:38:32;95388.03;;;3.61;71.19
55466;BME280;41329;41.594;23.810;2023-01-29T06:40:57;95400.41;;;3.67;71.14
55466;BME280;41329;41.594;23.810;2023-01-29T06:43:23;95394.28;;;3.70;71.35
55466;BME280;41329;41.594;23.810;2023-01-29T06:45:53;95399.75;;;3.70;71.31
55466;BME280;41329;41.594;23.810;2023-01-29T06:48:19;95387.19;;;3.69;71.04
55466;BME280;41329;41.594;23.810;2023-01-29T06:50:45;95396.06;;;3.66;71.06
55466;BME280;41329;41.594;23.810;2023-01-29T06:53:11;95403.09;;;3.76;71.17
55466;BME280;41329;41.594;23.810;2023-01-29T06:55:37;95403.59;;;3.78;70.67
55466;BME280;41329;41.594;23.810;2023-01-29T06:58:07;95400.34;;;3.76;70.55
55466;BME280;41329;41.594;23.810;2023-01-29T07:00:34;95410.00;;;3.82;69.92
55466;BME280;41329;41.594;23.810;2023-01-29T07:03:00;95392.50;;;3.74;69.94
55466;BME280;41329;41.594;23.810;2023-01-29T07:05:25;95403.72;;;3.81;69.54
55466;BME280;41329;41.594;23.810;2023-01-29T07:07:51;95410.47;;;3.84;69.24
55466;BME280;41329;41.594;23.810;2023-01-29T07:10:19;95418.84;;;3.87;69.15
55466;BME280;41329;41.594;23.810;2023-01-29T07:12:45;95409.81;;;3.87;69.35
55466;BME280;41329;41.594;23.810;2023-01-29T07:15:10;95418.81;;;3.96;68.95
55466;BME280;41329;41.594;23.810;2023-01-29T07:17:37;95417.34;;;3.98;69.13
55466;BME280;41329;41.594;23.810;2023-01-29T07:20:04;95411.09;;;3.98;68.99
55466;BME280;41329;41.594;23.810;2023-01-29T07:22:31;95425.22;;;4.00;68.90
55466;BME280;41329;41.594;23.810;2023-01-29T07:24:57;95371.28;;;3.63;69.25
55466;BME280;41329;41.594;23.810;2023-01-29T07:27:22;95427.97;;;4.00;69.06
55466;BME280;41329;41.594;23.810;2023-01-29T07:29:48;95427.66;;;4.01;68.88
55466;BME280;41329;41.594;23.810;2023-01-29T07:32:13;95428.28;;;3.98;68.98
55466;BME280;41329;41.594;23.810;2023-01-29T07:34:39;95409.25;;;3.73;68.57
55466;BME280;41329;41.594;23.810;2023-01-29T07:37:04;95408.25;;;3.77;68.58
55466;BME280;41329;41.594;23.810;2023-01-29T07:39:33;95421.91;;;3.86;68.31
55466;BME280;41329;41.594;23.810;2023-01-29T07:41:58;95434.78;;;3.85;68.54
55466;BME280;41329;41.594;23.810;2023-01-29T07:44:24;95417.56;;;3.85;69.12
55466;BME280;41329;41.594;23.810;2023-01-29T07:46:49;95433.78;;;3.98;69.28
55466;BME280;41329;41.594;23.810;2023-01-29T07:49:15;95434.72;;;4.02;69.20
55466;BME280;41329;41.594;23.810;2023-01-29T07:51:41;95439.75;;;4.00;68.57
55466;BME280;41329;41.594;23.810;2023-01-29T07:54:06;95447.81;;;3.88;68.67
55466;BME280;41329;41.594;23.810;2023-01-29T07:56:31;95439.06;;;3.57;68.80
55466;BME280;41329;41.594;23.810;2023-01-29T07:58:57;95447.22;;;3.74;68.73
55466;BME280;41329;41.594;23.810;2023-01-29T08:01:23;95445.63;;;3.65;68.71
55466;BME280;41329;41.594;23.810;2023-01-29T08:03:48;95445.78;;;3.68;68.87
55466;BME280;41329;41.594;23.810;2023-01-29T08:06:14;95450.09;;;3.78;68.88
55466;BME280;41329;41.594;23.810;2023-01-29T08:08:39;95454.47;;;3.70;68.56
55466;BME280;41329;41.594;23.810;2023-01-29T08:11:05;95445.94;;;3.72;68.58
55466;BME280;41329;41.594;23.810;2023-01-29T08:13:31;95445.13;;;3.71;68.52
55466;BME280;41329;41.594;23.810;2023-01-29T08:16:01;95462.97;;;3.77;68.79
55466;BME280;41329;41.594;23.810;2023-01-29T08:18:27;95443.06;;;3.60;68.86
55466;BME280;41329;41.594;23.810;2023-01-29T08:20:52;95438.75;;;3.50;68.97
55466;BME280;41329;41.594;23.810;2023-01-29T08:23:22;95448.38;;;3.65;69.00
55466;BME280;41329;41.594;23.810;2023-01-29T08:25:48;95461.50;;;3.80;69.11
55466;BME280;41329;41.594;23.810;2023-01-29T08:28:13;95461.13;;;3.98;69.36
55466;BME280;41329;41.594;23.810;2023-01-29T08:30:38;95468.50;;;4.15;69.40
55466;BME280;41329;41.594;23.810;2023-01-29T08:33:04;95461.97;;;3.99;68.74
55466;BME280;41329;41.594;23.810;2023-01-29T08:35:30;95469.13;;;4.20;68.69
55466;BME280;41329;41.594;23.810;2023-01-29T08:37:57;95474.69;;;4.32;68.75
55466;BME280;41329;41.594;23.810;2023-01-29T08:40:24;95466.13;;;4.42;68.60
55466;BME280;41329;41.594;23.810;2023-01-29T08:42:50;95462.56;;;4.50;68.68
55466;BME280;41329;41.594;23.810;2023-01-29T08:45:15;95448.84;;;4.50;68.32
55466;BME280;41329;41.594;23.810;2023-01-29T08:47:48;95472.31;;;4.60;68.32
55466;BME280;41329;41.594;23.810;2023-01-29T08:50:15;95474.59;;;4.58;68.18
55466;BME280;41329;41.594;23.810;2023-01-29T08:52:42;95480.28;;;4.44;67.42
55466;BME280;41329;41.594;23.810;2023-01-29T08:55:07;95467.03;;;4.55;67.78
55466;BME280;41329;41.594;23.810;2023-01-29T08:57:33;95477.19;;;4.83;68.83
55466;BME280;41329;41.594;23.810;2023-01-29T08:59:58;95471.72;;;4.83;68.38
55466;BME280;41329;41.594;23.810;2023-01-29T09:02:24;95468.19;;;4.74;67.65
55466;BME280;41329;41.594;23.810;2023-01-29T09:04:49;95477.66;;;4.85;67.93
55466;BME280;41329;41.594;23.810;2023-01-29T09:07:15;95481.13;;;4.94;67.09
55466;BME280;41329;41.594;23.810;2023-01-29T09:09:40;95475.13;;;5.01;67.12
55466;BME280;41329;41.594;23.810;2023-01-29T09:12:06;95476.97;;;5.17;66.38
55466;BME280;41329;41.594;23.810;2023-01-29T09:14:31;95481.84;;;5.12;64.81
55466;BME280;41329;41.594;23.810;2023-01-29T09:16:57;95480.28;;;5.02;65.65
55466;BME280;41329;41.594;23.810;2023-01-29T09:19:22;95457.66;;;4.85;66.00
55466;BME280;41329;41.594;23.810;2023-01-29T09:21:48;95458.47;;;5.06;66.12
55466;BME280;41329;41.594;23.810;2023-01-29T09:24:14;95455.81;;;5.18;65.11
55466;BME280;41329;41.594;23.810;2023-01-29T09:26:39;95444.38;;;5.16;64.88
55466;BME280;41329;41.594;23.810;2023-01-29T09:29:05;95460.38;;;5.34;64.75
55466;BME280;41329;41.594;23.810;2023-01-29T09:31:31;95448.63;;;5.46;64.38
55466;BME280;41329;41.594;23.810;2023-01-29T09:33:56;95444.41;;;5.48;65.17
55466;BME280;41329;41.594;23.810;2023-01-29T09:36:21;95434.25;;;5.49;64.75
55466;BME280;41329;41.594;23.810;2023-01-29T09:38:47;95432.63;;;5.48;65.16
55466;BME280;41329;41.594;23.810;2023-01-29T09:44:10;95431.97;;;5.83;63.98
55466;BME280;41329;41.594;23.810;2023-01-29T09:46:41;95437.78;;;6.14;65.59
55466;BME280;41329;41.594;23.810;2023-01-29T09:49:13;95436.75;;;6.31;63.78
55466;BME280;41329;41.594;23.810;2023-01-29T09:51:43;95431.38;;;6.46;64.21
55466;BME280;41329;41.594;23.810;2023-01-29T09:57:00;95416.63;;;6.39;60.24
55466;BME280;41329;41.594;23.810;2023-01-29T09:59:29;95429.34;;;6.56;61.88
55466;BME280;41329;41.594;23.810;2023-01-29T10:02:08;95428.75;;;6.74;62.70
55466;BME280;41329;41.594;23.810;2023-01-29T10:10:41;95414.22;;;6.74;59.64
55466;BME280;41329;41.594;23.810;2023-01-29T10:13:43;95412.25;;;6.74;59.54
55466;BME280;41329;41.594;23.810;2023-01-29T10:16:34;95409.63;;;6.78;60.35
55466;BME280;41329;41.594;23.810;2023-01-29T10:22:36;95409.03;;;6.96;58.78
55466;BME280;41329;41.594;23.810;2023-01-29T10:25:08;95414.53;;;6.96;59.07
55466;BME280;41329;41.594;23.810;2023-01-29T10:27:38;95401.28;;;6.62;58.16
55466;BME280;41329;41.594;23.810;2023-01-29T10:30:20;95405.19;;;6.49;59.63
55466;BME280;41329;41.594;23.810;2023-01-29T10:32:47;95401.38;;;6.41;58.84
55466;BME280;41329;41.594;23.810;2023-01-29T10:35:21;95397.72;;;6.37;60.22
55466;BME280;41329;41.594;23.810;2023-01-29T10:37:47;95393.63;;;6.43;59.02
55466;BME280;41329;41.594;23.810;2023-01-29T10:40:23;95394.53;;;6.23;59.86
55466;BME280;41329;41.594;23.810;2023-01-29T10:43:19;95387.44;;;6.34;60.17
55466;BME280;41329;41.594;23.810;2023-01-29T10:46:18;95380.06;;;6.50;59.59
55466;BME280;41329;41.594;23.810;2023-01-29T10:48:56;95382.81;;;6.50;60.33
55466;BME280;41329;41.594;23.810;2023-01-29T10:51:38;95374.00;;;6.57;60.61
55466;BME280;41329;41.594;23.810;2023-01-29T10:59:54;95375.47;;;6.67;60.21
55466;BME280;41329;41.594;23.810;2023-01-29T11:02:22;95353.06;;;6.53;59.24
55466;BME280;41329;41.594;23.810;2023-01-29T11:04:48;95365.41;;;6.71;59.79
55466;BME280;41329;41.594;23.810;2023-01-29T11:07:17;95360.53;;;6.92;59.53
55466;BME280;41329;41.594;23.810;2023-01-29T11:10:09;95339.69;;;6.91;58.12
55466;BME280;41329;41.594;23.810;2023-01-29T11:12:38;95351.06;;;7.17;58.86
55466;BME280;41329;41.594;23.810;2023-01-29T11:15:06;95329.88;;;7.17;58.34
55466;BME280;41329;41.594;23.810;2023-01-29T11:17:38;95345.19;;;7.30;55.78
55466;BME280;41329;41.594;23.810;2023-01-29T11:20:26;95329.06;;;7.17;55.08
55466;BME280;41329;41.594;23.810;2023-01-29T11:22:53;95332.97;;;7.16;57.20
55466;BME280;41329;41.594;23.810;2023-01-29T11:25:20;95343.19;;;7.03;57.91
55466;BME280;41329;41.594;23.810;2023-01-29T11:27:52;95319.84;;;6.97;57.77
55466;BME280;41329;41.594;23.810;2023-01-29T11:30:22;95324.75;;;7.31;57.61
55466;BME280;41329;41.594;23.810;2023-01-29T11:32:51;95334.00;;;7.39;57.05
55466;BME280;41329;41.594;23.810;2023-01-29T11:35:23;95325.16;;;7.18;57.38
55466;BME280;41329;41.594;23.810;2023-01-29T11:37:49;95321.00;;;6.96;56.58
55466;BME280;41329;41.594;23.810;2023-01-29T11:42:49;95260.53;;;6.84;55.76
55466;BME280;41329;41.594;23.810;2023-01-29T11:47:51;95309.25;;;7.11;56.71
55466;BME280;41329;41.594;23.810;2023-01-29T11:50:23;95308.97;;;7.16;56.95
55466;BME280;41329;41.594;23.810;2023-01-29T11:52:49;95317.09;;;7.25;57.13
55466;BME280;41329;41.594;23.810;2023-01-29T11:57:49;95296.84;;;7.17;56.78
55466;BME280;41329;41.594;23.810;2023-01-29T12:00:28;95290.31;;;7.10;56.18
55466;BME280;41329;41.594;23.810;2023-01-29T12:03:05;95300.69;;;7.28;54.33
55466;BME280;41329;41.594;23.810;2023-01-29T12:05:32;95295.94;;;7.41;55.31
55466;BME280;41329;41.594;23.810;2023-01-29T12:07:59;95284.63;;;7.30;55.43
55466;BME280;41329;41.594;23.810;2023-01-29T12:10:36;95271.25;;;7.44;55.63
55466;BME280;41329;41.594;23.810;2023-01-29T12:15:35;95294.16;;;7.64;53.91
55466;BME280;41329;41.594;23.810;2023-01-29T12:25:59;95285.91;;;8.10;53.47
55466;BME280;41329;41.594;23.810;2023-01-29T12:40:15;95291.09;;;7.96;52.10
55466;BME280;41329;41.594;23.810;2023-01-29T12:42:45;95287.59;;;7.99;53.33
55466;BME280;41329;41.594;23.810;2023-01-29T12:45:17;95275.44;;;8.00;52.99
55466;BME280;41329;41.594;23.810;2023-01-29T12:47:47;95275.34;;;7.97;52.54
55466;BME280;41329;41.594;23.810;2023-01-29T12:52:49;95271.53;;;8.01;52.23
55466;BME280;41329;41.594;23.810;2023-01-29T12:55:21;95275.06;;;8.02;52.49
55466;BME280;41329;41.594;23.810;2023-01-29T12:58:00;95253.22;;;7.93;53.02
55466;BME280;41329;41.594;23.810;2023-01-29T13:00:38;95266.31;;;7.96;53.40
55466;BME280;41329;41.594;23.810;2023-01-29T13:03:23;95254.56;;;7.84;52.94
55466;BME280;41329;41.594;23.810;2023-01-29T13:05:53;95268.50;;;7.91;53.95
55466;BME280;41329;41.594;23.810;2023-01-29T13:08:40;95274.09;;;7.94;53.05
55466;BME280;41329;41.594;23.810;2023-01-29T13:11:11;95257.59;;;7.79;53.41
55466;BME280;41329;41.594;23.810;2023-01-29T13:13:46;95268.41;;;7.72;54.15
55466;BME280;41329;41.594;23.810;2023-01-29T13:16:18;95260.59;;;7.58;54.12
55466;BME280;41329;41.594;23.810;2023-01-29T13:18:57;95259.72;;;7.70;52.97
55466;BME280;41329;41.594;23.810;2023-01-29T13:21:35;95266.28;;;7.81;52.83
55466;BME280;41329;41.594;23.810;2023-01-29T13:24:15;95243.56;;;7.68;53.89
55466;BME280;41329;41.594;23.810;2023-01-29T13:26:45;95257.66;;;7.82;53.65
55466;BME280;41329;41.594;23.810;2023-01-29T13:29:23;95242.03;;;7.71;53.28
55466;BME280;41329;41.594;23.810;2023-01-29T13:31:53;95262.38;;;7.66;52.98
55466;BME280;41329;41.594;23.810;2023-01-29T13:34:28;95260.06;;;7.68;52.85
55466;BME280;41329;41.594;23.810;2023-01-29T13:37:17;95257.06;;;7.58;52.81
55466;BME280;41329;41.594;23.810;2023-01-29T13:39:48;95257.41;;;7.56;53.42
55466;BME280;41329;41.594;23.810;2023-01-29T13:42:22;95264.41;;;7.69;52.50
55466;BME280;41329;41.594;23.810;2023-01-29T13:44:54;95250.19;;;7.52;53.75
55466;BME280;41329;41.594;23.810;2023-01-29T13:47:41;95266.81;;;7.40;53.60
55466;BME280;41329;41.594;23.810;2023-01-29T13:53:00;95264.38;;;7.23;54.60
55466;BME280;41329;41.594;23.810;2023-01-29T13:55:35;95265.81;;;7.32;54.30
55466;BME280;41329;41.594;23.810;2023-01-29T13:58:02;95249.63;;;7.31;53.64
55466;BME280;41329;41.594;23.810;2023-01-29T14:08:40;95275.75;;;7.37;53.34
55466;BME280;41329;41.594;23.810;2023-01-29T14:10:42;95273.09;;;7.40;53.68
55466;BME280;41329;41.594;23.810;2023-01-29T14:18:28;95274.00;;;7.44;52.97
55466;BME280;41329;41.594;23.810;2023-01-29T14:21:06;95261.03;;;7.29;53.00
55466;BME280;41329;41.594;23.810;2023-01-29T14:26:04;95282.72;;;7.46;53.62
55466;BME280;41329;41.594;23.810;2023-01-29T14:28:32;95286.78;;;7.52;53.72
55466;BME280;41329;41.594;23.810;2023-01-29T14:30:58;95294.63;;;7.50;53.08
55466;BME280;41329;41.594;23.810;2023-01-29T14:33:34;95296.28;;;7.55;53.20
55466;BME280;41329;41.594;23.810;2023-01-29T14:36:11;95299.59;;;7.60;53.53
55466;BME280;41329;41.594;23.810;2023-01-29T14:38:39;95302.09;;;7.65;54.28
55466;BME280;41329;41.594;23.810;2023-01-29T14:41:30;95259.88;;;7.46;53.99
55466;BME280;41329;41.594;23.810;2023-01-29T14:46:59;95300.41;;;7.76;54.26
55466;BME280;41329;41.594;23.810;2023-01-29T14:49:50;95299.59;;;7.76;54.65
55466;BME280;41329;41.594;23.810;2023-01-29T14:52:17;95302.63;;;7.71;55.21
55466;BME280;41329;41.594;23.810;2023-01-29T14:54:46;95261.31;;;7.40;55.65
55466;BME280;41329;41.594;23.810;2023-01-29T14:57:15;95306.44;;;7.66;56.07
55466;BME280;41329;41.594;23.810;2023-01-29T14:59:53;95300.41;;;7.61;56.69
55466;BME280;41329;41.594;23.810;2023-01-29T15:02:30;95295.88;;;7.53;56.53
55466;BME280;41329;41.594;23.810;2023-01-29T15:05:01;95316.19;;;7.48;57.17
55466;BME280;41329;41.594;23.810;2023-01-29T15:15:10;95329.94;;;7.48;57.50
55466;BME280;41329;41.594;23.810;2023-01-29T15:17:48;95315.19;;;7.41;57.56
55466;BME280;41329;41.594;23.810;2023-01-29T15:20:28;95324.34;;;7.45;57.62
55466;BME280;41329;41.594;23.810;2023-01-29T15:22:54;95316.97;;;7.33;57.72
55466;BME280;41329;41.594;23.810;2023-01-29T15:25:20;95336.75;;;7.39;57.94
55466;BME280;41329;41.594;23.810;2023-01-29T15:27:46;95342.97;;;7.36;57.84
55466;BME280;41329;41.594;23.810;2023-01-29T15:30:28;95319.16;;;7.28;58.06
55466;BME280;41329;41.594;23.810;2023-01-29T15:32:57;95322.94;;;7.23;58.04